createdAt,value
2022-08-30T00:00:45.576Z,16.62
2022-08-30T00:01:45.499Z,16.56
2022-08-30T00:02:45.584Z,16.55
2022-08-30T00:03:45.506Z,16.56
2022-08-30T00:04:45.263Z,16.60
2022-08-30T00:05:45.194Z,16.53
2022-08-30T00:06:45.114Z,16.52
2022-08-30T00:07:45.036Z,16.45
2022-08-30T00:08:44.961Z,16.35
2022-08-30T00:09:44.887Z,16.34
2022-08-30T00:10:44.821Z,16.35
2022-08-30T00:11:44.733Z,16.27
2022-08-30T00:12:44.652Z,16.27
2022-08-30T00:13:44.582Z,16.27
2022-08-30T00:14:44.499Z,16.25
2022-08-30T00:15:44.503Z,16.37
2022-08-30T00:16:44.348Z,16.22
2022-08-30T00:17:44.267Z,16.22
2022-08-30T00:18:44.197Z,16.12
2022-08-30T00:19:44.116Z,16.07
2022-08-30T00:20:44.042Z,16.00
2022-08-30T00:21:43.964Z,15.92
2022-08-30T00:22:43.888Z,16.00
2022-08-30T00:23:43.811Z,15.99
2022-08-30T00:24:43.736Z,16.03
2022-08-30T00:25:43.655Z,16.07
2022-08-30T00:26:43.584Z,16.06
2022-08-30T00:27:43.508Z,16.04
2022-08-30T00:28:43.431Z,16.03
2022-08-30T00:29:43.350Z,16.08
2022-08-30T00:30:43.311Z,16.08
2022-08-30T00:31:43.204Z,16.14
2022-08-30T00:32:43.124Z,16.15
2022-08-30T00:33:43.048Z,16.08
2022-08-30T00:34:42.973Z,16.06
2022-08-30T00:35:42.892Z,16.07
2022-08-30T00:36:42.818Z,16.01
2022-08-30T00:37:42.744Z,16.03
2022-08-30T00:38:42.665Z,16.01
2022-08-30T00:39:42.586Z,16.14
2022-08-30T00:40:42.586Z,16.04
2022-08-30T00:41:42.433Z,16.10
2022-08-30T00:42:42.358Z,16.03
2022-08-30T00:43:42.277Z,16.07
2022-08-30T00:44:42.203Z,16.01
2022-08-30T00:45:42.126Z,16.04
2022-08-30T00:46:42.128Z,16.08
2022-08-30T00:47:41.969Z,15.99
2022-08-30T00:48:41.897Z,16.03
2022-08-30T00:49:41.817Z,15.91
2022-08-30T00:50:41.759Z,15.83
2022-08-30T00:51:41.667Z,15.70
2022-08-30T00:52:41.603Z,15.63
2022-08-30T00:53:41.509Z,15.63
2022-08-30T00:54:41.434Z,15.60
2022-08-30T00:55:41.957Z,15.57
2022-08-30T00:56:41.285Z,15.55
2022-08-30T00:57:41.204Z,15.61
2022-08-30T00:58:41.139Z,15.63
2022-08-30T00:59:41.058Z,15.66
2022-08-30T01:00:40.973Z,15.57
2022-08-30T01:01:40.938Z,15.57
2022-08-30T01:02:40.861Z,15.67
2022-08-30T01:03:40.744Z,15.60
2022-08-30T01:04:40.665Z,15.57
2022-08-30T01:05:40.586Z,15.48
2022-08-30T01:06:40.512Z,15.51
2022-08-30T01:07:40.436Z,15.43
2022-08-30T01:08:40.366Z,15.41
2022-08-30T01:09:40.285Z,15.48
2022-08-30T01:10:40.210Z,15.48
2022-08-30T01:11:40.128Z,15.51
2022-08-30T01:12:40.054Z,15.49
2022-08-30T01:13:39.973Z,15.49
2022-08-30T01:14:39.898Z,15.48
2022-08-30T01:15:39.855Z,15.59
2022-08-30T01:16:39.745Z,15.49
2022-08-30T01:17:39.667Z,15.53
2022-08-30T01:18:39.847Z,15.61
2022-08-30T01:19:39.516Z,15.53
2022-08-30T01:20:39.438Z,15.64
2022-08-30T01:21:39.357Z,15.60
2022-08-30T01:22:39.284Z,15.60
2022-08-30T01:23:39.213Z,15.61
2022-08-30T01:24:39.132Z,15.64
2022-08-30T01:25:39.052Z,15.61
2022-08-30T01:26:38.975Z,15.57
2022-08-30T01:27:38.899Z,15.52
2022-08-30T01:28:38.827Z,15.51
2022-08-30T01:29:38.742Z,15.51
2022-08-30T01:30:38.726Z,15.57
2022-08-30T01:31:38.591Z,15.52
2022-08-30T01:32:38.515Z,15.45
2022-08-30T01:33:38.438Z,15.53
2022-08-30T01:34:38.358Z,15.53
2022-08-30T01:35:38.282Z,15.49
2022-08-30T01:36:38.207Z,15.41
2022-08-30T01:37:38.126Z,15.49
2022-08-30T01:38:38.054Z,15.49
2022-08-30T01:39:37.975Z,15.51
2022-08-30T01:40:37.934Z,15.59
2022-08-30T01:41:37.824Z,15.51
2022-08-30T01:42:37.747Z,15.46
2022-08-30T01:43:37.664Z,15.51
2022-08-30T01:44:37.587Z,15.45
2022-08-30T01:45:37.568Z,15.30
2022-08-30T01:46:37.441Z,15.24
2022-08-30T01:47:37.359Z,15.18
2022-08-30T01:48:37.282Z,15.15
2022-08-30T01:49:37.206Z,15.03
2022-08-30T01:50:37.131Z,15.03
2022-08-30T01:51:37.051Z,15.06
2022-08-30T01:52:36.971Z,15.06
2022-08-30T01:53:36.899Z,15.15
2022-08-30T01:54:38.147Z,15.15
2022-08-30T01:55:36.746Z,15.15
2022-08-30T01:56:36.665Z,15.16
2022-08-30T01:57:36.586Z,15.18
2022-08-30T01:58:36.514Z,15.20
2022-08-30T01:59:36.435Z,15.21
2022-08-30T02:00:36.355Z,15.28
2022-08-30T02:01:36.342Z,15.26
2022-08-30T02:02:36.205Z,15.28
2022-08-30T02:03:36.140Z,15.23
2022-08-30T02:04:36.048Z,15.27
2022-08-30T02:05:35.969Z,15.16
2022-08-30T02:06:35.894Z,15.15
2022-08-30T02:07:35.820Z,15.10
2022-08-30T02:08:35.736Z,15.09
2022-08-30T02:09:35.667Z,15.13
2022-08-30T02:10:35.585Z,15.09
2022-08-30T02:11:35.511Z,15.08
2022-08-30T02:12:35.436Z,15.08
2022-08-30T02:13:35.354Z,14.91
2022-08-30T02:14:35.275Z,14.87
2022-08-30T02:15:41.438Z,14.91
2022-08-30T02:16:35.173Z,14.83
2022-08-30T02:17:35.045Z,14.84
2022-08-30T02:18:34.965Z,14.87
2022-08-30T02:19:34.894Z,14.91
2022-08-30T02:20:34.809Z,14.97
2022-08-30T02:21:34.734Z,15.01
2022-08-30T02:22:34.670Z,14.98
2022-08-30T02:23:34.585Z,14.93
2022-08-30T02:24:34.513Z,14.80
2022-08-30T02:25:34.427Z,14.75
2022-08-30T02:26:34.353Z,14.79
2022-08-30T02:27:34.281Z,14.79
2022-08-30T02:28:34.199Z,14.68
2022-08-30T02:29:34.119Z,14.87
2022-08-30T02:30:34.103Z,14.78
2022-08-30T02:31:33.962Z,14.85
2022-08-30T02:32:33.886Z,14.85
2022-08-30T02:33:33.813Z,14.87
2022-08-30T02:34:33.730Z,14.88
2022-08-30T02:35:33.651Z,14.85
2022-08-30T02:36:33.579Z,14.87
2022-08-30T02:37:33.498Z,14.91
2022-08-30T02:38:33.422Z,14.93
2022-08-30T02:39:33.346Z,14.88
2022-08-30T02:40:33.304Z,14.83
2022-08-30T02:41:33.188Z,14.94
2022-08-30T02:42:33.113Z,14.85
2022-08-30T02:43:33.035Z,14.83
2022-08-30T02:44:32.955Z,14.88
2022-08-30T02:45:32.905Z,14.97
2022-08-30T02:46:33.394Z,14.87
2022-08-30T02:47:32.727Z,14.87
2022-08-30T02:48:32.645Z,14.93
2022-08-30T02:49:33.924Z,14.93
2022-08-30T02:50:32.495Z,14.94
2022-08-30T02:51:32.418Z,14.95
2022-08-30T02:52:32.338Z,14.90
2022-08-30T02:53:32.261Z,14.91
2022-08-30T02:54:32.185Z,14.85
2022-08-30T02:55:32.105Z,14.90
2022-08-30T02:56:32.026Z,14.84
2022-08-30T02:57:31.950Z,14.83
2022-08-30T02:58:31.876Z,14.83
2022-08-30T02:59:31.800Z,14.90
2022-08-30T03:00:31.718Z,14.75
2022-08-30T03:01:31.699Z,14.80
2022-08-30T03:02:31.571Z,14.87
2022-08-30T03:03:31.591Z,14.84
2022-08-30T03:04:31.412Z,14.84
2022-08-30T03:05:31.332Z,14.94
2022-08-30T03:06:31.252Z,14.90
2022-08-30T03:07:31.179Z,14.88
2022-08-30T03:08:31.099Z,14.74
2022-08-30T03:09:31.028Z,14.83
2022-08-30T03:10:30.942Z,14.80
2022-08-30T03:11:30.871Z,14.90
2022-08-30T03:12:30.789Z,14.79
2022-08-30T03:13:30.712Z,14.68
2022-08-30T03:14:30.639Z,14.64
2022-08-30T03:15:30.562Z,14.68
2022-08-30T03:16:30.510Z,14.65
2022-08-30T03:17:30.405Z,14.68
2022-08-30T03:18:30.341Z,14.72
2022-08-30T03:19:30.252Z,14.74
2022-08-30T03:20:30.171Z,14.85
2022-08-30T03:21:30.094Z,14.68
2022-08-30T03:22:30.019Z,14.72
2022-08-30T03:23:29.938Z,14.69
2022-08-30T03:24:29.857Z,14.69
2022-08-30T03:25:29.790Z,14.75
2022-08-30T03:26:29.705Z,14.72
2022-08-30T03:27:29.635Z,14.78
2022-08-30T03:28:29.551Z,14.83
2022-08-30T03:29:29.479Z,14.80
2022-08-30T03:30:29.397Z,14.88
2022-08-30T03:31:29.345Z,14.91
2022-08-30T03:32:29.240Z,14.88
2022-08-30T03:33:29.163Z,14.83
2022-08-30T03:34:29.085Z,14.85
2022-08-30T03:35:29.014Z,14.85
2022-08-30T03:36:28.933Z,14.90
2022-08-30T03:37:28.858Z,14.95
2022-08-30T03:38:28.777Z,14.90
2022-08-30T03:39:28.698Z,14.95
2022-08-30T03:40:28.687Z,14.91
2022-08-30T03:41:28.547Z,15.08
2022-08-30T03:42:28.471Z,14.95
2022-08-30T03:43:28.394Z,14.94
2022-08-30T03:44:28.314Z,14.93
2022-08-30T03:45:28.317Z,14.90
2022-08-30T03:46:28.806Z,14.87
2022-08-30T03:47:28.087Z,14.85
2022-08-30T03:48:28.004Z,14.91
2022-08-30T03:49:27.929Z,14.84
2022-08-30T03:50:27.847Z,14.91
2022-08-30T03:51:27.770Z,14.88
2022-08-30T03:52:27.693Z,14.87
2022-08-30T03:53:27.615Z,14.87
2022-08-30T03:54:27.537Z,14.97
2022-08-30T03:55:27.460Z,14.93
2022-08-30T03:56:27.384Z,14.84
2022-08-30T03:57:27.306Z,14.90
2022-08-30T03:58:27.226Z,14.87
2022-08-30T03:59:27.152Z,14.90
2022-08-30T04:00:27.075Z,14.80
2022-08-30T04:01:27.024Z,14.72
2022-08-30T04:02:26.987Z,14.88
2022-08-30T04:03:26.843Z,14.93
2022-08-30T04:04:26.767Z,14.85
2022-08-30T04:05:26.688Z,14.79
2022-08-30T04:06:26.607Z,14.80
2022-08-30T04:07:26.534Z,14.85
2022-08-30T04:08:26.453Z,14.75
2022-08-30T04:09:26.381Z,14.83
2022-08-30T04:10:26.302Z,14.79
2022-08-30T04:11:26.222Z,14.85
2022-08-30T04:12:26.145Z,14.79
2022-08-30T04:13:26.066Z,14.71
2022-08-30T04:14:25.992Z,14.80
2022-08-30T04:15:25.912Z,14.78
2022-08-30T04:16:25.884Z,14.85
2022-08-30T04:17:25.756Z,14.80
2022-08-30T04:18:25.681Z,14.85
2022-08-30T04:19:25.605Z,14.85
2022-08-30T04:20:25.523Z,14.83
2022-08-30T04:21:25.448Z,14.69
2022-08-30T04:22:25.366Z,14.61
2022-08-30T04:23:25.292Z,14.57
2022-08-30T04:24:25.217Z,14.56
2022-08-30T04:25:25.134Z,14.53
2022-08-30T04:26:27.689Z,14.61
2022-08-30T04:27:24.984Z,14.59
2022-08-30T04:28:24.899Z,14.60
2022-08-30T04:29:24.826Z,14.60
2022-08-30T04:30:24.750Z,14.54
2022-08-30T04:31:24.725Z,14.56
2022-08-30T04:32:24.595Z,14.67
2022-08-30T04:33:24.516Z,14.56
2022-08-30T04:34:24.437Z,14.57
2022-08-30T04:35:24.363Z,14.44
2022-08-30T04:36:24.282Z,14.41
2022-08-30T04:37:24.216Z,14.39
2022-08-30T04:38:28.620Z,14.46
2022-08-30T04:39:24.052Z,14.41
2022-08-30T04:40:24.007Z,14.39
2022-08-30T04:41:23.897Z,14.44
2022-08-30T04:42:23.819Z,14.49
2022-08-30T04:43:23.741Z,14.53
2022-08-30T04:44:23.658Z,14.52
2022-08-30T04:45:23.635Z,14.44
2022-08-30T04:46:23.508Z,14.44
2022-08-30T04:47:23.435Z,14.47
2022-08-30T04:48:23.348Z,14.41
2022-08-30T04:49:23.274Z,14.36
2022-08-30T04:50:23.198Z,14.38
2022-08-30T04:51:23.116Z,14.34
2022-08-30T04:52:23.040Z,14.38
2022-08-30T04:53:22.961Z,14.44
2022-08-30T04:54:22.893Z,14.49
2022-08-30T04:55:22.812Z,14.42
2022-08-30T04:56:22.732Z,14.38
2022-08-30T04:57:22.661Z,14.44
2022-08-30T04:58:22.572Z,14.44
2022-08-30T04:59:22.501Z,14.39
2022-08-30T05:00:22.418Z,14.47
2022-08-30T05:01:23.820Z,14.38
2022-08-30T05:02:22.334Z,14.50
2022-08-30T05:03:22.191Z,14.41
2022-08-30T05:04:22.119Z,14.36
2022-08-30T05:05:22.067Z,14.38
2022-08-30T05:06:21.957Z,14.47
2022-08-30T05:07:21.879Z,14.41
2022-08-30T05:08:24.618Z,14.36
2022-08-30T05:09:21.723Z,14.41
2022-08-30T05:10:21.638Z,14.36
2022-08-30T05:11:21.570Z,14.39
2022-08-30T05:12:21.484Z,14.47
2022-08-30T05:13:35.118Z,14.49
2022-08-30T05:14:21.336Z,14.54
2022-08-30T05:15:21.253Z,14.57
2022-08-30T05:16:21.244Z,14.59
2022-08-30T05:17:21.104Z,14.53
2022-08-30T05:18:21.016Z,14.60
2022-08-30T05:19:20.940Z,14.56
2022-08-30T05:20:20.862Z,14.56
2022-08-30T05:21:20.789Z,14.65
2022-08-30T05:22:20.710Z,14.65
2022-08-30T05:23:20.634Z,14.64
2022-08-30T05:24:20.552Z,14.75
2022-08-30T05:25:20.476Z,14.64
2022-08-30T05:26:20.399Z,14.72
2022-08-30T05:27:20.327Z,14.65
2022-08-30T05:28:24.319Z,14.72
2022-08-30T05:29:20.169Z,14.91
2022-08-30T05:30:20.089Z,14.74
2022-08-30T05:31:20.040Z,14.87
2022-08-30T05:32:19.934Z,14.90
2022-08-30T05:33:19.854Z,14.88
2022-08-30T05:34:19.780Z,14.84
2022-08-30T05:35:24.956Z,14.93
2022-08-30T05:36:19.628Z,14.95
2022-08-30T05:37:19.547Z,14.91
2022-08-30T05:38:19.464Z,14.95
2022-08-30T05:39:21.068Z,14.94
2022-08-30T05:40:19.393Z,15.09
2022-08-30T05:41:19.233Z,15.03
2022-08-30T05:42:19.155Z,15.06
2022-08-30T05:43:19.080Z,15.09
2022-08-30T05:44:21.047Z,15.13
2022-08-30T05:45:18.922Z,15.18
2022-08-30T05:46:18.918Z,15.15
2022-08-30T05:47:18.766Z,15.20
2022-08-30T05:48:18.752Z,15.12
2022-08-30T05:49:18.612Z,15.21
2022-08-30T05:50:18.532Z,15.33
2022-08-30T05:51:18.462Z,15.31
2022-08-30T05:52:18.377Z,15.26
2022-08-30T05:53:18.308Z,15.34
2022-08-30T05:54:18.227Z,15.38
2022-08-30T05:55:18.150Z,15.42
2022-08-30T05:56:18.068Z,15.48
2022-08-30T05:57:17.992Z,15.46
2022-08-30T05:58:18.092Z,15.48
2022-08-30T05:59:17.838Z,15.53
2022-08-30T06:00:17.758Z,15.57
2022-08-30T06:01:17.686Z,15.57
2022-08-30T06:02:17.672Z,15.61
2022-08-30T06:03:17.559Z,15.63
2022-08-30T06:04:17.447Z,15.67
2022-08-30T06:05:17.369Z,15.61
2022-08-30T06:06:17.297Z,15.70
2022-08-30T06:07:18.918Z,15.75
2022-08-30T06:08:17.366Z,15.71
2022-08-30T06:09:17.062Z,15.68
2022-08-30T06:10:17.330Z,15.79
2022-08-30T06:11:16.908Z,15.85
2022-08-30T06:12:16.833Z,15.76
2022-08-30T06:13:16.755Z,15.83
2022-08-30T06:14:16.674Z,15.86
2022-08-30T06:15:16.598Z,15.91
2022-08-30T06:16:16.636Z,15.97
2022-08-30T06:17:16.444Z,15.97
2022-08-30T06:18:16.577Z,15.96
2022-08-30T06:19:16.289Z,16.03
2022-08-30T06:20:16.212Z,16.01
2022-08-30T06:21:16.137Z,16.04
2022-08-30T06:22:16.058Z,16.07
2022-08-30T06:23:15.979Z,16.18
2022-08-30T06:24:15.904Z,16.23
2022-08-30T06:25:15.830Z,16.33
2022-08-30T06:26:15.747Z,16.26
2022-08-30T06:27:15.672Z,16.34
2022-08-30T06:28:15.826Z,16.41
2022-08-30T06:29:15.516Z,16.35
2022-08-30T06:30:15.445Z,16.40
2022-08-30T06:31:15.461Z,16.37
2022-08-30T06:32:15.282Z,16.50
2022-08-30T06:33:15.207Z,16.44
2022-08-30T06:34:15.133Z,16.53
2022-08-30T06:35:15.054Z,16.56
2022-08-30T06:36:14.977Z,16.52
2022-08-30T06:37:29.329Z,16.56
2022-08-30T06:38:14.822Z,16.60
2022-08-30T06:39:14.744Z,16.56
2022-08-30T06:40:14.719Z,16.65
2022-08-30T06:41:14.592Z,16.57
2022-08-30T06:42:14.517Z,16.75
2022-08-30T06:43:14.433Z,16.71
2022-08-30T06:44:14.360Z,16.63
2022-08-30T06:45:14.279Z,16.77
2022-08-30T06:46:14.280Z,16.85
2022-08-30T06:47:14.130Z,16.88
2022-08-30T06:48:14.062Z,16.84
2022-08-30T06:49:13.980Z,16.96
2022-08-30T06:50:13.898Z,16.95
2022-08-30T06:51:13.849Z,16.99
2022-08-30T06:52:13.749Z,17.00
2022-08-30T06:53:13.666Z,17.00
2022-08-30T06:54:13.589Z,17.07
2022-08-30T06:55:13.514Z,17.15
2022-08-30T06:56:16.520Z,17.20
2022-08-30T06:57:13.360Z,17.23
2022-08-30T06:58:13.325Z,17.26
2022-08-30T06:59:13.211Z,17.26
2022-08-30T07:00:13.130Z,17.32
2022-08-30T07:01:13.054Z,17.29
2022-08-30T07:02:13.059Z,17.53
2022-08-30T07:03:12.935Z,17.50
2022-08-30T07:04:12.820Z,17.51
2022-08-30T07:05:16.740Z,17.66
2022-08-30T07:06:12.672Z,17.66
2022-08-30T07:07:12.590Z,17.70
2022-08-30T07:08:12.577Z,17.74
2022-08-30T07:09:12.439Z,17.77
2022-08-30T07:10:12.386Z,17.84
2022-08-30T07:11:12.286Z,17.85
2022-08-30T07:12:12.213Z,17.95
2022-08-30T07:13:12.649Z,18.04
2022-08-30T07:14:12.367Z,18.11
2022-08-30T07:15:11.978Z,18.07
2022-08-30T07:16:12.410Z,18.28
2022-08-30T07:17:11.824Z,18.34
2022-08-30T07:18:11.752Z,18.42
2022-08-30T07:19:18.603Z,18.58
2022-08-30T07:20:11.598Z,18.55
2022-08-30T07:21:11.518Z,18.57
2022-08-30T07:22:11.444Z,18.67
2022-08-30T07:23:11.453Z,18.74
2022-08-30T07:24:11.292Z,18.82
2022-08-30T07:25:11.218Z,18.98
2022-08-30T07:26:11.144Z,18.97
2022-08-30T07:27:11.062Z,19.17
2022-08-30T07:28:10.994Z,19.21
2022-08-30T07:29:10.915Z,19.27
2022-08-30T07:30:10.844Z,19.32
2022-08-30T07:31:10.806Z,19.38
2022-08-30T07:32:10.714Z,19.54
2022-08-30T07:33:10.688Z,19.58
2022-08-30T07:34:10.545Z,19.75
2022-08-30T07:35:10.494Z,20.03
2022-08-30T07:36:10.382Z,19.97
2022-08-30T07:37:10.304Z,20.03
2022-08-30T07:38:10.267Z,20.16
2022-08-30T07:39:10.155Z,20.26
2022-08-30T07:40:10.180Z,20.54
2022-08-30T07:41:10.035Z,20.56
2022-08-30T07:42:09.934Z,20.72
2022-08-30T07:43:09.987Z,20.89
2022-08-30T07:44:09.791Z,20.98
2022-08-30T07:45:09.706Z,21.04
2022-08-30T07:46:09.659Z,21.09
2022-08-30T07:47:09.550Z,21.29
2022-08-30T07:48:09.478Z,21.39
2022-08-30T07:49:11.080Z,21.39
2022-08-30T07:50:09.367Z,21.46
2022-08-30T07:51:09.246Z,21.45
2022-08-30T07:52:09.175Z,21.59
2022-08-30T07:53:10.776Z,21.69
2022-08-30T07:54:09.025Z,21.82
2022-08-30T07:55:08.945Z,21.82
2022-08-30T07:56:08.887Z,21.92
2022-08-30T07:57:08.803Z,22.04
2022-08-30T07:58:08.731Z,22.07
2022-08-30T07:59:08.652Z,22.23
2022-08-30T08:00:08.578Z,22.32
2022-08-30T08:01:08.498Z,22.42
2022-08-30T08:02:08.450Z,22.54
2022-08-30T08:03:08.420Z,22.59
2022-08-30T08:04:08.275Z,22.57
2022-08-30T08:05:08.204Z,22.63
2022-08-30T08:06:08.133Z,22.57
2022-08-30T08:07:08.057Z,22.54
2022-08-30T08:08:07.985Z,22.56
2022-08-30T08:09:07.914Z,22.60
2022-08-30T08:10:07.833Z,22.72
2022-08-30T08:11:07.763Z,22.86
2022-08-30T08:12:07.696Z,22.97
2022-08-30T08:13:07.610Z,22.99
2022-08-30T08:14:07.555Z,23.04
2022-08-30T08:15:08.668Z,23.05
2022-08-30T08:16:07.417Z,23.11
2022-08-30T08:17:07.318Z,23.20
2022-08-30T08:18:07.244Z,23.34
2022-08-30T08:19:07.169Z,23.42
2022-08-30T08:20:07.097Z,23.40
2022-08-30T08:21:07.024Z,23.52
2022-08-30T08:22:20.552Z,23.53
2022-08-30T08:23:06.876Z,23.75
2022-08-30T08:24:06.807Z,23.90
2022-08-30T08:25:06.730Z,23.95
2022-08-30T08:26:06.661Z,24.10
2022-08-30T08:27:06.584Z,24.11
2022-08-30T08:28:06.575Z,24.08
2022-08-30T08:29:06.442Z,24.07
2022-08-30T08:30:06.367Z,24.11
2022-08-30T08:31:06.404Z,23.98
2022-08-30T08:32:06.222Z,24.04
2022-08-30T08:33:06.151Z,24.07
2022-08-30T08:34:06.500Z,24.12
2022-08-30T08:35:06.059Z,24.15
2022-08-30T08:36:09.268Z,24.20
2022-08-30T08:37:05.855Z,24.17
2022-08-30T08:38:05.788Z,24.30
2022-08-30T08:39:05.726Z,24.47
2022-08-30T08:40:05.683Z,24.66
2022-08-30T08:41:05.566Z,24.62
2022-08-30T08:42:05.493Z,24.69
2022-08-30T08:43:05.425Z,24.76
2022-08-30T08:44:05.357Z,24.85
2022-08-30T08:45:10.186Z,24.93
2022-08-30T08:46:05.239Z,25.02
2022-08-30T08:47:05.136Z,24.90
2022-08-30T08:48:05.071Z,24.93
2022-08-30T08:49:04.998Z,24.88
2022-08-30T08:50:04.921Z,25.09
2022-08-30T08:51:04.852Z,25.10
2022-08-30T08:52:04.778Z,25.17
2022-08-30T08:53:04.708Z,25.32
2022-08-30T08:54:04.636Z,25.28
2022-08-30T08:55:04.575Z,25.28
2022-08-30T08:56:04.490Z,25.42
2022-08-30T08:57:04.418Z,25.53
2022-08-30T08:58:04.348Z,25.62
2022-08-30T08:59:04.276Z,25.78
2022-08-30T09:00:04.203Z,25.86
2022-08-30T09:01:04.147Z,25.90
2022-08-30T09:02:04.148Z,26.07
2022-08-30T09:03:03.991Z,26.02
2022-08-30T09:04:03.918Z,26.12
2022-08-30T09:05:03.921Z,26.12
2022-08-30T09:06:03.780Z,26.25
2022-08-30T09:07:03.707Z,26.27
2022-08-30T09:08:06.605Z,26.24
2022-08-30T09:09:03.564Z,26.34
2022-08-30T09:10:03.493Z,26.27
2022-08-30T09:11:03.420Z,26.42
2022-08-30T09:12:03.352Z,26.50
2022-08-30T09:13:03.280Z,26.57
2022-08-30T09:14:03.206Z,26.65
2022-08-30T09:15:03.141Z,26.72
2022-08-30T09:16:03.092Z,26.80
2022-08-30T09:17:03.362Z,26.80
2022-08-30T09:18:02.923Z,26.92
2022-08-30T09:19:02.859Z,26.95
2022-08-30T09:20:02.785Z,26.94
2022-08-30T09:21:02.709Z,26.83
2022-08-30T09:22:02.642Z,26.92
2022-08-30T09:23:02.578Z,26.87
2022-08-30T09:24:02.501Z,26.89
2022-08-30T09:25:02.429Z,26.89
2022-08-30T09:26:02.376Z,26.84
2022-08-30T09:27:02.288Z,26.80
2022-08-30T09:28:02.220Z,26.84
2022-08-30T09:29:02.150Z,26.92
2022-08-30T09:30:02.083Z,26.97
2022-08-30T09:31:02.029Z,27.01
2022-08-30T09:32:22.427Z,27.14
2022-08-30T09:33:01.868Z,27.20
2022-08-30T09:34:01.809Z,27.24
2022-08-30T09:35:01.760Z,27.23
2022-08-30T09:36:01.658Z,27.39
2022-08-30T09:37:01.592Z,27.39
2022-08-30T09:38:01.524Z,27.26
2022-08-30T09:39:01.452Z,27.36
2022-08-30T09:40:01.476Z,27.31
2022-08-30T09:41:01.308Z,27.27
2022-08-30T09:42:01.242Z,27.26
2022-08-30T09:43:01.172Z,27.16
2022-08-30T09:44:01.098Z,27.09
2022-08-30T09:45:01.026Z,27.07
2022-08-30T09:46:01.120Z,27.14
2022-08-30T09:47:00.920Z,27.24
2022-08-30T09:48:00.836Z,27.34
2022-08-30T09:49:00.747Z,27.34
2022-08-30T09:50:00.701Z,27.42
2022-08-30T09:51:00.619Z,27.57
2022-08-30T09:52:00.541Z,27.72
2022-08-30T09:53:00.468Z,27.64
2022-08-30T09:54:16.533Z,27.76
2022-08-30T09:55:00.350Z,27.89
2022-08-30T09:56:00.317Z,27.79
2022-08-30T09:57:00.212Z,27.99
2022-08-30T09:58:00.129Z,28.02
2022-08-30T09:59:00.073Z,28.04
2022-08-30T10:00:00.061Z,28.01
2022-08-30T10:00:59.966Z,28.11
2022-08-30T10:01:59.885Z,28.06
2022-08-30T10:02:59.812Z,28.04
2022-08-30T10:03:59.713Z,28.22
2022-08-30T10:04:59.645Z,28.24
2022-08-30T10:05:59.573Z,28.32
2022-08-30T10:06:59.528Z,28.41
2022-08-30T10:07:59.437Z,28.49
2022-08-30T10:08:59.365Z,28.62
2022-08-30T10:09:59.292Z,28.61
2022-08-30T10:10:59.234Z,28.72
2022-08-30T10:11:59.186Z,28.73
2022-08-30T10:12:59.117Z,28.80
2022-08-30T10:13:59.070Z,28.69
2022-08-30T10:14:59.001Z,28.78
2022-08-30T10:15:58.912Z,28.80
2022-08-30T10:16:58.858Z,28.93
2022-08-30T10:17:58.764Z,28.98
2022-08-30T10:18:58.675Z,29.13
2022-08-30T10:19:58.650Z,29.04
2022-08-30T10:20:58.532Z,29.07
2022-08-30T10:21:58.463Z,29.11
2022-08-30T10:22:58.703Z,29.14
2022-08-30T10:23:58.326Z,29.22
2022-08-30T10:24:58.256Z,29.29
2022-08-30T10:25:58.191Z,29.09
2022-08-30T10:26:58.161Z,29.10
2022-08-30T10:27:58.049Z,29.01
2022-08-30T10:28:57.987Z,28.93
2022-08-30T10:29:57.917Z,28.84
2022-08-30T10:30:57.846Z,28.66
2022-08-30T10:31:57.776Z,28.65
2022-08-30T10:32:57.711Z,28.72
2022-08-30T10:33:57.649Z,28.80
2022-08-30T10:34:57.575Z,28.87
2022-08-30T10:35:57.503Z,28.96
2022-08-30T10:36:57.438Z,29.01
2022-08-30T10:37:57.372Z,29.13
2022-08-30T10:38:57.299Z,29.23
2022-08-30T10:39:57.233Z,29.43
2022-08-30T10:40:57.200Z,29.46
2022-08-30T10:41:57.095Z,29.51
2022-08-30T10:42:57.027Z,29.56
2022-08-30T10:43:56.961Z,29.47
2022-08-30T10:44:56.896Z,29.53
2022-08-30T10:45:56.824Z,29.47
2022-08-30T10:46:56.753Z,29.43
2022-08-30T10:47:56.687Z,29.31
2022-08-30T10:48:56.617Z,29.19
2022-08-30T10:49:56.552Z,29.22
2022-08-30T10:50:56.487Z,29.22
2022-08-30T10:51:59.063Z,29.21
2022-08-30T10:52:56.344Z,29.25
2022-08-30T10:53:56.279Z,29.25
2022-08-30T10:54:56.215Z,29.31
2022-08-30T10:55:56.141Z,29.19
2022-08-30T10:56:56.072Z,29.10
2022-08-30T10:57:56.004Z,29.11
2022-08-30T10:58:55.945Z,29.10
2022-08-30T10:59:55.868Z,29.21
2022-08-30T11:00:55.835Z,29.23
2022-08-30T11:01:55.741Z,29.18
2022-08-30T11:02:55.671Z,29.26
2022-08-30T11:03:55.602Z,29.18
2022-08-30T11:04:55.531Z,29.34
2022-08-30T11:05:55.464Z,29.47
2022-08-30T11:06:55.396Z,29.51
2022-08-30T11:07:55.327Z,29.43
2022-08-30T11:08:55.267Z,29.59
2022-08-30T11:09:55.196Z,29.51
2022-08-30T11:10:55.126Z,29.38
2022-08-30T11:11:55.057Z,29.38
2022-08-30T11:12:54.995Z,29.43
2022-08-30T11:13:57.227Z,29.46
2022-08-30T11:14:54.854Z,29.51
2022-08-30T11:15:54.788Z,29.59
2022-08-30T11:16:54.720Z,29.71
2022-08-30T11:17:54.651Z,29.84
2022-08-30T11:18:54.590Z,30.00
2022-08-30T11:19:54.520Z,30.11
2022-08-30T11:20:54.452Z,30.12
2022-08-30T11:21:54.380Z,30.24
2022-08-30T11:22:54.325Z,30.24
2022-08-30T11:23:54.246Z,30.26
2022-08-30T11:24:54.187Z,30.26
2022-08-30T11:25:58.037Z,30.27
2022-08-30T11:26:54.051Z,30.18
2022-08-30T11:27:53.976Z,30.17
2022-08-30T11:28:53.915Z,30.05
2022-08-30T11:29:53.851Z,30.00
2022-08-30T11:30:53.783Z,30.02
2022-08-30T11:31:53.722Z,30.06
2022-08-30T11:32:53.648Z,30.08
2022-08-30T11:33:53.583Z,30.08
2022-08-30T11:34:53.510Z,29.95
2022-08-30T11:35:53.454Z,29.95
2022-08-30T11:36:53.381Z,29.96
2022-08-30T11:37:53.331Z,30.08
2022-08-30T11:38:53.251Z,30.24
2022-08-30T11:39:53.177Z,30.22
2022-08-30T11:40:53.111Z,30.37
2022-08-30T11:41:53.043Z,30.39
2022-08-30T11:42:53.526Z,30.44
2022-08-30T11:43:53.261Z,30.44
2022-08-30T11:44:52.846Z,30.46
2022-08-30T11:45:52.842Z,30.50
2022-08-30T11:46:52.709Z,30.52
2022-08-30T11:47:52.645Z,30.52
2022-08-30T11:48:55.233Z,30.52
2022-08-30T11:49:52.510Z,30.40
2022-08-30T11:50:52.445Z,30.34
2022-08-30T11:51:58.236Z,30.19
2022-08-30T11:52:52.311Z,29.99
2022-08-30T11:53:52.258Z,29.87
2022-08-30T11:54:53.176Z,29.68
2022-08-30T11:55:52.110Z,29.44
2022-08-30T11:56:52.042Z,29.32
2022-08-30T11:57:51.973Z,29.26
2022-08-30T11:58:51.912Z,29.28
2022-08-30T11:59:51.841Z,29.44
2022-08-30T12:00:52.831Z,29.41
2022-08-30T12:01:52.345Z,29.37
2022-08-30T12:02:51.751Z,29.36
2022-08-30T12:03:51.574Z,29.37
2022-08-30T12:04:51.536Z,29.37
2022-08-30T12:05:51.683Z,29.44
2022-08-30T12:06:51.377Z,29.53
2022-08-30T12:07:51.315Z,29.66
2022-08-30T12:08:51.384Z,29.80
2022-08-30T12:09:51.179Z,29.93
2022-08-30T12:10:51.110Z,30.05
2022-08-30T12:11:51.040Z,30.18
2022-08-30T12:12:51.037Z,30.24
2022-08-30T12:13:50.911Z,30.30
2022-08-30T12:14:50.851Z,30.33
2022-08-30T12:15:50.776Z,30.37
2022-08-30T12:16:50.739Z,30.43
2022-08-30T12:17:50.931Z,30.49
2022-08-30T12:18:50.577Z,30.44
2022-08-30T12:19:50.633Z,30.50
2022-08-30T12:20:50.454Z,30.50
2022-08-30T12:21:50.378Z,30.53
2022-08-30T12:22:50.317Z,30.60
2022-08-30T12:23:50.243Z,30.62
2022-08-30T12:24:50.180Z,30.60
2022-08-30T12:25:50.111Z,30.68
2022-08-30T12:26:50.049Z,30.64
2022-08-30T12:27:49.980Z,30.62
2022-08-30T12:28:49.915Z,30.60
2022-08-30T12:29:49.849Z,30.59
2022-08-30T12:30:49.780Z,30.70
2022-08-30T12:31:49.839Z,30.64
2022-08-30T12:32:50.873Z,30.74
2022-08-30T12:33:50.749Z,30.72
2022-08-30T12:34:49.514Z,30.78
2022-08-30T12:35:49.449Z,30.75
2022-08-30T12:36:49.384Z,30.65
2022-08-30T12:37:49.316Z,30.65
2022-08-30T12:38:49.251Z,30.64
2022-08-30T12:39:53.649Z,30.59
2022-08-30T12:40:49.188Z,30.57
2022-08-30T12:41:49.047Z,30.39
2022-08-30T12:42:48.985Z,30.40
2022-08-30T12:43:48.913Z,30.36
2022-08-30T12:44:48.849Z,30.34
2022-08-30T12:45:50.829Z,30.33
2022-08-30T12:46:48.721Z,30.37
2022-08-30T12:47:48.650Z,30.33
2022-08-30T12:48:48.584Z,30.43
2022-08-30T12:49:48.523Z,30.46
2022-08-30T12:50:48.456Z,30.37
2022-08-30T12:51:48.386Z,30.46